sensor_id;sensor_type;location;lat;lon;timestamp;P1;durP1;ratioP1;P2;durP2;ratioP2
58928;SDS011;44713;53.378;10.022;2023-04-15T00:00:13;5.38;;;4.55;;
58928;SDS011;44713;53.378;10.022;2023-04-15T00:02:39;9.90;;;4.88;;
58928;SDS011;44713;53.378;10.022;2023-04-15T00:05:05;5.97;;;5.00;;
58928;SDS011;44713;53.378;10.022;2023-04-15T00:07:31;5.15;;;4.63;;
58928;SDS011;44713;53.378;10.022;2023-04-15T00:09:57;6.20;;;5.03;;
58928;SDS011;44713;53.378;10.022;2023-04-15T00:12:23;8.63;;;5.60;;
58928;SDS011;44713;53.378;10.022;2023-04-15T00:14:48;6.00;;;4.90;;
58928;SDS011;44713;53.378;10.022;2023-04-15T00:17:15;8.65;;;5.15;;
58928;SDS011;44713;53.378;10.022;2023-04-15T00:19:41;9.80;;;5.65;;
58928;SDS011;44713;53.378;10.022;2023-04-15T00:22:06;6.55;;;5.68;;
58928;SDS011;44713;53.378;10.022;2023-04-15T00:24:32;6.97;;;5.18;;
58928;SDS011;44713;53.378;10.022;2023-04-15T00:26:58;6.65;;;5.50;;
58928;SDS011;44713;53.378;10.022;2023-04-15T00:29:24;6.43;;;5.15;;
58928;SDS011;44713;53.378;10.022;2023-04-15T00:31:49;6.07;;;5.30;;
58928;SDS011;44713;53.378;10.022;2023-04-15T00:34:15;5.75;;;5.03;;
58928;SDS011;44713;53.378;10.022;2023-04-15T00:36:41;6.25;;;5.13;;
58928;SDS011;44713;53.378;10.022;2023-04-15T00:39:07;6.38;;;5.30;;
58928;SDS011;44713;53.378;10.022;2023-04-15T00:41:32;7.07;;;5.30;;
58928;SDS011;44713;53.378;10.022;2023-04-15T00:43:58;5.65;;;5.05;;
58928;SDS011;44713;53.378;10.022;2023-04-15T00:46:27;8.40;;;4.93;;
58928;SDS011;44713;53.378;10.022;2023-04-15T00:48:53;7.18;;;5.53;;
58928;SDS011;44713;53.378;10.022;2023-04-15T00:51:19;6.85;;;5.40;;
58928;SDS011;44713;53.378;10.022;2023-04-15T00:53:44;11.25;;;6.05;;
58928;SDS011;44713;53.378;10.022;2023-04-15T00:56:10;8.95;;;6.07;;
58928;SDS011;44713;53.378;10.022;2023-04-15T00:58:36;8.65;;;6.13;;
58928;SDS011;44713;53.378;10.022;2023-04-15T01:01:02;6.82;;;5.70;;
58928;SDS011;44713;53.378;10.022;2023-04-15T01:03:28;8.02;;;6.03;;
58928;SDS011;44713;53.378;10.022;2023-04-15T01:05:54;7.18;;;5.70;;
58928;SDS011;44713;53.378;10.022;2023-04-15T01:08:31;8.52;;;6.47;;
58928;SDS011;44713;53.378;10.022;2023-04-15T01:10:57;7.15;;;5.85;;
58928;SDS011;44713;53.378;10.022;2023-04-15T01:13:25;9.30;;;5.78;;
58928;SDS011;44713;53.378;10.022;2023-04-15T01:15:51;6.97;;;5.95;;
58928;SDS011;44713;53.378;10.022;2023-04-15T01:18:17;7.28;;;6.53;;
58928;SDS011;44713;53.378;10.022;2023-04-15T01:20:43;6.18;;;5.53;;
58928;SDS011;44713;53.378;10.022;2023-04-15T01:23:08;9.30;;;6.97;;
58928;SDS011;44713;53.378;10.022;2023-04-15T01:25:34;7.43;;;6.63;;
58928;SDS011;44713;53.378;10.022;2023-04-15T01:27:59;8.40;;;6.55;;
58928;SDS011;44713;53.378;10.022;2023-04-15T01:30:25;7.95;;;6.35;;
58928;SDS011;44713;53.378;10.022;2023-04-15T01:32:52;7.78;;;6.30;;
58928;SDS011;44713;53.378;10.022;2023-04-15T01:35:18;8.50;;;6.93;;
58928;SDS011;44713;53.378;10.022;2023-04-15T01:37:43;8.25;;;6.25;;
58928;SDS011;44713;53.378;10.022;2023-04-15T01:40:09;8.07;;;6.50;;
58928;SDS011;44713;53.378;10.022;2023-04-15T01:42:35;10.45;;;6.90;;
58928;SDS011;44713;53.378;10.022;2023-04-15T01:45:01;8.63;;;6.75;;
58928;SDS011;44713;53.378;10.022;2023-04-15T01:47:28;9.18;;;6.70;;
58928;SDS011;44713;53.378;10.022;2023-04-15T01:49:53;7.88;;;6.68;;
58928;SDS011;44713;53.378;10.022;2023-04-15T01:52:18;8.80;;;7.20;;
58928;SDS011;44713;53.378;10.022;2023-04-15T01:54:44;9.48;;;7.00;;
58928;SDS011;44713;53.378;10.022;2023-04-15T01:57:10;8.00;;;7.03;;
58928;SDS011;44713;53.378;10.022;2023-04-15T01:59:36;8.40;;;6.88;;
58928;SDS011;44713;53.378;10.022;2023-04-15T02:02:01;10.88;;;6.63;;
58928;SDS011;44713;53.378;10.022;2023-04-15T02:04:26;8.15;;;6.30;;
58928;SDS011;44713;53.378;10.022;2023-04-15T02:06:52;9.02;;;6.25;;
58928;SDS011;44713;53.378;10.022;2023-04-15T02:09:20;10.20;;;6.65;;
58928;SDS011;44713;53.378;10.022;2023-04-15T02:11:45;7.90;;;6.07;;
58928;SDS011;44713;53.378;10.022;2023-04-15T02:14:10;6.93;;;6.22;;
58928;SDS011;44713;53.378;10.022;2023-04-15T02:16:35;9.80;;;6.80;;
58928;SDS011;44713;53.378;10.022;2023-04-15T02:19:01;8.95;;;6.55;;
58928;SDS011;44713;53.378;10.022;2023-04-15T02:21:31;7.97;;;6.60;;
58928;SDS011;44713;53.378;10.022;2023-04-15T02:23:56;8.68;;;6.40;;
58928;SDS011;44713;53.378;10.022;2023-04-15T02:26:22;7.40;;;6.50;;
58928;SDS011;44713;53.378;10.022;2023-04-15T02:28:49;9.63;;;6.43;;
58928;SDS011;44713;53.378;10.022;2023-04-15T02:31:15;9.27;;;6.35;;
58928;SDS011;44713;53.378;10.022;2023-04-15T02:33:41;8.88;;;6.95;;
58928;SDS011;44713;53.378;10.022;2023-04-15T02:36:07;7.40;;;6.03;;
58928;SDS011;44713;53.378;10.022;2023-04-15T02:38:32;9.02;;;6.70;;
58928;SDS011;44713;53.378;10.022;2023-04-15T02:40:57;8.80;;;6.00;;
58928;SDS011;44713;53.378;10.022;2023-04-15T02:43:23;7.55;;;6.00;;
58928;SDS011;44713;53.378;10.022;2023-04-15T02:45:49;8.85;;;6.45;;
58928;SDS011;44713;53.378;10.022;2023-04-15T02:48:15;9.07;;;7.15;;
58928;SDS011;44713;53.378;10.022;2023-04-15T02:50:43;8.48;;;7.40;;
58928;SDS011;44713;53.378;10.022;2023-04-15T02:53:11;9.45;;;7.57;;
58928;SDS011;44713;53.378;10.022;2023-04-15T02:55:38;10.23;;;7.85;;
58928;SDS011;44713;53.378;10.022;2023-04-15T02:58:04;10.15;;;8.02;;
58928;SDS011;44713;53.378;10.022;2023-04-15T03:00:29;9.93;;;8.13;;
58928;SDS011;44713;53.378;10.022;2023-04-15T03:03:02;10.70;;;8.20;;
58928;SDS011;44713;53.378;10.022;2023-04-15T03:05:28;10.95;;;8.43;;
58928;SDS011;44713;53.378;10.022;2023-04-15T03:07:54;10.80;;;7.82;;
58928;SDS011;44713;53.378;10.022;2023-04-15T03:10:20;11.73;;;8.77;;
58928;SDS011;44713;53.378;10.022;2023-04-15T03:12:46;12.35;;;9.40;;
58928;SDS011;44713;53.378;10.022;2023-04-15T03:15:16;13.93;;;9.00;;
58928;SDS011;44713;53.378;10.022;2023-04-15T03:17:45;13.80;;;9.35;;
58928;SDS011;44713;53.378;10.022;2023-04-15T03:20:12;13.07;;;9.02;;
58928;SDS011;44713;53.378;10.022;2023-04-15T03:22:37;12.05;;;9.27;;
58928;SDS011;44713;53.378;10.022;2023-04-15T03:25:02;15.57;;;10.18;;
58928;SDS011;44713;53.378;10.022;2023-04-15T03:27:28;15.32;;;9.85;;
58928;SDS011;44713;53.378;10.022;2023-04-15T03:29:57;13.77;;;9.90;;
58928;SDS011;44713;53.378;10.022;2023-04-15T03:32:24;14.52;;;10.65;;
58928;SDS011;44713;53.378;10.022;2023-04-15T03:34:51;16.90;;;11.70;;
58928;SDS011;44713;53.378;10.022;2023-04-15T03:37:16;14.88;;;10.82;;
58928;SDS011;44713;53.378;10.022;2023-04-15T03:39:41;15.73;;;11.38;;
58928;SDS011;44713;53.378;10.022;2023-04-15T03:42:07;16.50;;;11.73;;
58928;SDS011;44713;53.378;10.022;2023-04-15T03:44:32;18.35;;;12.43;;
58928;SDS011;44713;53.378;10.022;2023-04-15T03:46:57;17.33;;;11.85;;
58928;SDS011;44713;53.378;10.022;2023-04-15T03:49:23;19.70;;;12.77;;
58928;SDS011;44713;53.378;10.022;2023-04-15T03:51:48;18.45;;;12.07;;
58928;SDS011;44713;53.378;10.022;2023-04-15T03:54:13;18.83;;;11.93;;
58928;SDS011;44713;53.378;10.022;2023-04-15T03:56:39;16.90;;;11.75;;
58928;SDS011;44713;53.378;10.022;2023-04-15T03:59:04;18.05;;;13.43;;
58928;SDS011;44713;53.378;10.022;2023-04-15T04:01:30;17.33;;;12.77;;
58928;SDS011;44713;53.378;10.022;2023-04-15T04:03:55;18.35;;;12.73;;
58928;SDS011;44713;53.378;10.022;2023-04-15T04:06:20;18.15;;;13.00;;
58928;SDS011;44713;53.378;10.022;2023-04-15T04:08:46;15.88;;;11.95;;
58928;SDS011;44713;53.378;10.022;2023-04-15T04:11:11;19.83;;;13.55;;
58928;SDS011;44713;53.378;10.022;2023-04-15T04:13:37;17.98;;;12.90;;
58928;SDS011;44713;53.378;10.022;2023-04-15T04:16:02;17.35;;;12.77;;
58928;SDS011;44713;53.378;10.022;2023-04-15T04:18:28;19.13;;;12.88;;
58928;SDS011;44713;53.378;10.022;2023-04-15T04:20:55;18.88;;;13.20;;
58928;SDS011;44713;53.378;10.022;2023-04-15T04:23:20;19.45;;;13.10;;
58928;SDS011;44713;53.378;10.022;2023-04-15T04:25:46;19.70;;;12.48;;
58928;SDS011;44713;53.378;10.022;2023-04-15T04:28:11;17.00;;;12.13;;
58928;SDS011;44713;53.378;10.022;2023-04-15T04:30:36;17.88;;;13.55;;
58928;SDS011;44713;53.378;10.022;2023-04-15T04:33:02;17.83;;;12.65;;
58928;SDS011;44713;53.378;10.022;2023-04-15T04:35:27;17.00;;;12.18;;
58928;SDS011;44713;53.378;10.022;2023-04-15T04:37:53;15.93;;;11.27;;
58928;SDS011;44713;53.378;10.022;2023-04-15T04:40:18;18.50;;;11.63;;
58928;SDS011;44713;53.378;10.022;2023-04-15T04:42:43;16.15;;;12.02;;
58928;SDS011;44713;53.378;10.022;2023-04-15T04:45:09;17.45;;;12.38;;
58928;SDS011;44713;53.378;10.022;2023-04-15T04:47:34;16.58;;;12.50;;
58928;SDS011;44713;53.378;10.022;2023-04-15T04:49:59;18.40;;;12.23;;
58928;SDS011;44713;53.378;10.022;2023-04-15T04:52:25;17.52;;;12.32;;
58928;SDS011;44713;53.378;10.022;2023-04-15T04:54:50;15.82;;;11.43;;
58928;SDS011;44713;53.378;10.022;2023-04-15T04:57:15;17.25;;;11.50;;
58928;SDS011;44713;53.378;10.022;2023-04-15T04:59:41;17.30;;;12.35;;
58928;SDS011;44713;53.378;10.022;2023-04-15T05:02:06;18.60;;;12.30;;
58928;SDS011;44713;53.378;10.022;2023-04-15T05:04:32;16.98;;;12.77;;
58928;SDS011;44713;53.378;10.022;2023-04-15T05:06:57;17.77;;;12.80;;
58928;SDS011;44713;53.378;10.022;2023-04-15T05:09:23;19.35;;;12.65;;
58928;SDS011;44713;53.378;10.022;2023-04-15T05:11:48;18.20;;;11.68;;
58928;SDS011;44713;53.378;10.022;2023-04-15T05:14:14;21.30;;;13.00;;
58928;SDS011;44713;53.378;10.022;2023-04-15T05:16:39;18.60;;;12.68;;
58928;SDS011;44713;53.378;10.022;2023-04-15T05:19:05;18.20;;;12.25;;
58928;SDS011;44713;53.378;10.022;2023-04-15T05:21:30;19.42;;;13.32;;
58928;SDS011;44713;53.378;10.022;2023-04-15T05:23:56;17.67;;;13.13;;
58928;SDS011;44713;53.378;10.022;2023-04-15T05:26:21;18.17;;;12.68;;
58928;SDS011;44713;53.378;10.022;2023-04-15T05:28:48;20.00;;;13.15;;
58928;SDS011;44713;53.378;10.022;2023-04-15T05:31:13;19.77;;;13.48;;
58928;SDS011;44713;53.378;10.022;2023-04-15T05:33:39;21.77;;;14.55;;
58928;SDS011;44713;53.378;10.022;2023-04-15T05:36:04;26.38;;;16.90;;
58928;SDS011;44713;53.378;10.022;2023-04-15T05:38:30;24.40;;;16.60;;
58928;SDS011;44713;53.378;10.022;2023-04-15T05:40:55;27.73;;;17.80;;
58928;SDS011;44713;53.378;10.022;2023-04-15T05:43:21;25.95;;;16.77;;
58928;SDS011;44713;53.378;10.022;2023-04-15T05:45:46;27.10;;;17.80;;
58928;SDS011;44713;53.378;10.022;2023-04-15T05:48:11;30.50;;;19.02;;
58928;SDS011;44713;53.378;10.022;2023-04-15T05:50:39;29.92;;;18.67;;
58928;SDS011;44713;53.378;10.022;2023-04-15T05:53:05;33.92;;;19.92;;
58928;SDS011;44713;53.378;10.022;2023-04-15T05:55:31;33.47;;;20.92;;
58928;SDS011;44713;53.378;10.022;2023-04-15T05:57:56;34.67;;;20.70;;
58928;SDS011;44713;53.378;10.022;2023-04-15T06:00:22;39.33;;;21.52;;
58928;SDS011;44713;53.378;10.022;2023-04-15T06:02:47;38.50;;;21.42;;
58928;SDS011;44713;53.378;10.022;2023-04-15T06:05:13;36.65;;;23.88;;
58928;SDS011;44713;53.378;10.022;2023-04-15T06:07:39;37.22;;;21.75;;
58928;SDS011;44713;53.378;10.022;2023-04-15T06:10:04;41.00;;;22.63;;
58928;SDS011;44713;53.378;10.022;2023-04-15T06:12:32;46.53;;;31.35;;
58928;SDS011;44713;53.378;10.022;2023-04-15T06:14:57;41.17;;;24.95;;
58928;SDS011;44713;53.378;10.022;2023-04-15T06:17:23;40.08;;;24.08;;
58928;SDS011;44713;53.378;10.022;2023-04-15T06:19:48;44.95;;;25.48;;
58928;SDS011;44713;53.378;10.022;2023-04-15T06:22:19;42.80;;;25.27;;
58928;SDS011;44713;53.378;10.022;2023-04-15T06:24:44;45.38;;;24.98;;
58928;SDS011;44713;53.378;10.022;2023-04-15T06:27:10;45.97;;;27.42;;
58928;SDS011;44713;53.378;10.022;2023-04-15T06:29:35;44.83;;;26.83;;
58928;SDS011;44713;53.378;10.022;2023-04-15T06:32:09;53.17;;;29.30;;
58928;SDS011;44713;53.378;10.022;2023-04-15T06:34:35;51.05;;;28.15;;
58928;SDS011;44713;53.378;10.022;2023-04-15T06:37:00;50.25;;;28.73;;
58928;SDS011;44713;53.378;10.022;2023-04-15T06:39:25;60.90;;;31.60;;
58928;SDS011;44713;53.378;10.022;2023-04-15T06:41:59;62.08;;;31.45;;
58928;SDS011;44713;53.378;10.022;2023-04-15T06:44:25;60.13;;;31.67;;
58928;SDS011;44713;53.378;10.022;2023-04-15T06:46:50;56.58;;;31.08;;
58928;SDS011;44713;53.378;10.022;2023-04-15T06:49:16;57.13;;;31.17;;
58928;SDS011;44713;53.378;10.022;2023-04-15T06:51:41;64.03;;;31.50;;
58928;SDS011;44713;53.378;10.022;2023-04-15T06:54:07;63.67;;;32.13;;
58928;SDS011;44713;53.378;10.022;2023-04-15T06:56:33;59.55;;;31.08;;
58928;SDS011;44713;53.378;10.022;2023-04-15T06:58:58;68.18;;;33.80;;
58928;SDS011;44713;53.378;10.022;2023-04-15T07:01:24;66.72;;;33.22;;
58928;SDS011;44713;53.378;10.022;2023-04-15T07:03:49;63.60;;;33.45;;
58928;SDS011;44713;53.378;10.022;2023-04-15T07:06:15;59.65;;;31.73;;
58928;SDS011;44713;53.378;10.022;2023-04-15T07:08:41;68.78;;;33.70;;
58928;SDS011;44713;53.378;10.022;2023-04-15T07:16:16;67.43;;;34.55;;
58928;SDS011;44713;53.378;10.022;2023-04-15T07:18:42;69.07;;;35.80;;
58928;SDS011;44713;53.378;10.022;2023-04-15T07:21:07;67.55;;;35.40;;
58928;SDS011;44713;53.378;10.022;2023-04-15T07:23:33;71.70;;;36.03;;
58928;SDS011;44713;53.378;10.022;2023-04-15T07:26:01;66.53;;;35.88;;
58928;SDS011;44713;53.378;10.022;2023-04-15T07:28:27;58.42;;;33.40;;
58928;SDS011;44713;53.378;10.022;2023-04-15T07:30:52;63.00;;;33.47;;
58928;SDS011;44713;53.378;10.022;2023-04-15T07:33:17;58.40;;;32.35;;
58928;SDS011;44713;53.378;10.022;2023-04-15T07:35:43;60.90;;;32.67;;
58928;SDS011;44713;53.378;10.022;2023-04-15T07:38:09;60.35;;;31.40;;
58928;SDS011;44713;53.378;10.022;2023-04-15T07:40:36;57.63;;;30.33;;
58928;SDS011;44713;53.378;10.022;2023-04-15T07:43:03;57.63;;;32.53;;
58928;SDS011;44713;53.378;10.022;2023-04-15T07:45:29;60.40;;;34.10;;
58928;SDS011;44713;53.378;10.022;2023-04-15T07:47:55;60.88;;;32.55;;
58928;SDS011;44713;53.378;10.022;2023-04-15T07:50:20;58.17;;;32.47;;
58928;SDS011;44713;53.378;10.022;2023-04-15T07:52:47;59.78;;;33.50;;
58928;SDS011;44713;53.378;10.022;2023-04-15T07:55:13;61.53;;;34.63;;
58928;SDS011;44713;53.378;10.022;2023-04-15T07:57:39;63.72;;;34.80;;
58928;SDS011;44713;53.378;10.022;2023-04-15T08:00:04;62.10;;;34.80;;
58928;SDS011;44713;53.378;10.022;2023-04-15T08:02:38;62.28;;;35.55;;
58928;SDS011;44713;53.378;10.022;2023-04-15T08:05:04;56.67;;;34.17;;
58928;SDS011;44713;53.378;10.022;2023-04-15T08:07:29;56.40;;;33.65;;
58928;SDS011;44713;53.378;10.022;2023-04-15T08:09:55;55.17;;;31.92;;
58928;SDS011;44713;53.378;10.022;2023-04-15T08:12:24;58.08;;;33.50;;
58928;SDS011;44713;53.378;10.022;2023-04-15T08:14:49;55.83;;;33.13;;
58928;SDS011;44713;53.378;10.022;2023-04-15T08:17:16;55.75;;;32.92;;
58928;SDS011;44713;53.378;10.022;2023-04-15T08:19:43;63.95;;;34.70;;
58928;SDS011;44713;53.378;10.022;2023-04-15T08:22:09;59.15;;;35.58;;
58928;SDS011;44713;53.378;10.022;2023-04-15T08:24:36;62.05;;;36.75;;
58928;SDS011;44713;53.378;10.022;2023-04-15T08:27:07;61.30;;;35.53;;
58928;SDS011;44713;53.378;10.022;2023-04-15T08:29:42;58.38;;;35.20;;
58928;SDS011;44713;53.378;10.022;2023-04-15T08:32:10;61.10;;;35.65;;
58928;SDS011;44713;53.378;10.022;2023-04-15T08:34:36;59.17;;;36.33;;
58928;SDS011;44713;53.378;10.022;2023-04-15T08:37:01;58.53;;;34.42;;
58928;SDS011;44713;53.378;10.022;2023-04-15T08:39:26;60.95;;;35.65;;
58928;SDS011;44713;53.378;10.022;2023-04-15T08:41:58;64.97;;;38.47;;
58928;SDS011;44713;53.378;10.022;2023-04-15T08:46:55;60.72;;;35.00;;
58928;SDS011;44713;53.378;10.022;2023-04-15T08:49:24;60.30;;;35.15;;
58928;SDS011;44713;53.378;10.022;2023-04-15T08:51:58;64.88;;;36.35;;
58928;SDS011;44713;53.378;10.022;2023-04-15T08:54:24;63.45;;;36.13;;
58928;SDS011;44713;53.378;10.022;2023-04-15T08:56:51;57.20;;;36.70;;
58928;SDS011;44713;53.378;10.022;2023-04-15T08:59:18;66.13;;;36.20;;
58928;SDS011;44713;53.378;10.022;2023-04-15T09:01:45;64.03;;;36.63;;
58928;SDS011;44713;53.378;10.022;2023-04-15T09:04:11;58.50;;;35.13;;
58928;SDS011;44713;53.378;10.022;2023-04-15T09:06:36;61.90;;;36.53;;
58928;SDS011;44713;53.378;10.022;2023-04-15T09:09:03;60.90;;;35.38;;
58928;SDS011;44713;53.378;10.022;2023-04-15T09:11:29;60.42;;;36.05;;
58928;SDS011;44713;53.378;10.022;2023-04-15T09:13:55;59.03;;;34.78;;
58928;SDS011;44713;53.378;10.022;2023-04-15T09:16:20;58.33;;;34.30;;
58928;SDS011;44713;53.378;10.022;2023-04-15T09:18:46;56.13;;;33.90;;
58928;SDS011;44713;53.378;10.022;2023-04-15T09:21:12;58.28;;;34.65;;
58928;SDS011;44713;53.378;10.022;2023-04-15T09:23:55;58.03;;;35.53;;
58928;SDS011;44713;53.378;10.022;2023-04-15T09:26:32;55.38;;;32.80;;
58928;SDS011;44713;53.378;10.022;2023-04-15T09:29:07;55.33;;;33.45;;
58928;SDS011;44713;53.378;10.022;2023-04-15T09:31:35;57.25;;;32.60;;
58928;SDS011;44713;53.378;10.022;2023-04-15T09:34:00;59.53;;;35.65;;
58928;SDS011;44713;53.378;10.022;2023-04-15T09:36:27;57.75;;;35.58;;
58928;SDS011;44713;53.378;10.022;2023-04-15T09:38:56;67.90;;;38.33;;
58928;SDS011;44713;53.378;10.022;2023-04-15T09:41:22;61.65;;;36.10;;
58928;SDS011;44713;53.378;10.022;2023-04-15T09:43:49;60.28;;;35.25;;
58928;SDS011;44713;53.378;10.022;2023-04-15T09:46:14;54.38;;;34.63;;
58928;SDS011;44713;53.378;10.022;2023-04-15T09:48:40;55.50;;;33.40;;
58928;SDS011;44713;53.378;10.022;2023-04-15T09:51:05;55.25;;;34.17;;
58928;SDS011;44713;53.378;10.022;2023-04-15T09:53:32;56.40;;;34.90;;
58928;SDS011;44713;53.378;10.022;2023-04-15T09:55:59;56.72;;;35.72;;
58928;SDS011;44713;53.378;10.022;2023-04-15T09:58:30;62.88;;;35.53;;
58928;SDS011;44713;53.378;10.022;2023-04-15T10:00:57;57.33;;;34.65;;
58928;SDS011;44713;53.378;10.022;2023-04-15T10:05:50;58.75;;;35.00;;
58928;SDS011;44713;53.378;10.022;2023-04-15T10:08:17;55.92;;;34.25;;
58928;SDS011;44713;53.378;10.022;2023-04-15T10:10:45;56.40;;;36.20;;
58928;SDS011;44713;53.378;10.022;2023-04-15T10:13:15;60.00;;;36.78;;
58928;SDS011;44713;53.378;10.022;2023-04-15T10:15:43;53.67;;;33.67;;
58928;SDS011;44713;53.378;10.022;2023-04-15T10:18:16;56.20;;;34.90;;
58928;SDS011;44713;53.378;10.022;2023-04-15T10:20:45;51.45;;;32.00;;
58928;SDS011;44713;53.378;10.022;2023-04-15T10:23:12;53.78;;;32.13;;
58928;SDS011;44713;53.378;10.022;2023-04-15T10:25:37;54.00;;;33.35;;
58928;SDS011;44713;53.378;10.022;2023-04-15T10:28:03;54.90;;;34.55;;
58928;SDS011;44713;53.378;10.022;2023-04-15T10:30:31;51.75;;;32.70;;
58928;SDS011;44713;53.378;10.022;2023-04-15T10:32:57;52.58;;;32.55;;
58928;SDS011;44713;53.378;10.022;2023-04-15T10:35:24;46.38;;;30.63;;
58928;SDS011;44713;53.378;10.022;2023-04-15T10:37:50;51.13;;;31.25;;
58928;SDS011;44713;53.378;10.022;2023-04-15T10:42:55;47.72;;;30.65;;
58928;SDS011;44713;53.378;10.022;2023-04-15T10:45:21;45.10;;;28.80;;
58928;SDS011;44713;53.378;10.022;2023-04-15T10:48:00;39.88;;;27.23;;
58928;SDS011;44713;53.378;10.022;2023-04-15T10:50:27;42.65;;;28.83;;
58928;SDS011;44713;53.378;10.022;2023-04-15T10:52:54;41.55;;;27.25;;
58928;SDS011;44713;53.378;10.022;2023-04-15T10:55:22;42.95;;;27.92;;
58928;SDS011;44713;53.378;10.022;2023-04-15T10:57:52;42.25;;;27.85;;
58928;SDS011;44713;53.378;10.022;2023-04-15T11:00:19;43.00;;;27.23;;
58928;SDS011;44713;53.378;10.022;2023-04-15T11:02:56;37.20;;;27.02;;
58928;SDS011;44713;53.378;10.022;2023-04-15T11:08:03;45.45;;;27.77;;
58928;SDS011;44713;53.378;10.022;2023-04-15T11:12:58;40.08;;;26.33;;
58928;SDS011;44713;53.378;10.022;2023-04-15T11:20:43;33.45;;;23.05;;
58928;SDS011;44713;53.378;10.022;2023-04-15T11:23:11;32.10;;;21.13;;
58928;SDS011;44713;53.378;10.022;2023-04-15T11:25:38;29.15;;;20.30;;
58928;SDS011;44713;53.378;10.022;2023-04-15T11:28:03;26.30;;;18.70;;
58928;SDS011;44713;53.378;10.022;2023-04-15T11:30:30;29.52;;;18.13;;
58928;SDS011;44713;53.378;10.022;2023-04-15T11:32:58;23.33;;;17.75;;
58928;SDS011;44713;53.378;10.022;2023-04-15T11:35:28;29.35;;;18.35;;
58928;SDS011;44713;53.378;10.022;2023-04-15T11:37:54;24.30;;;17.58;;
58928;SDS011;44713;53.378;10.022;2023-04-15T11:40:24;27.63;;;17.85;;
58928;SDS011;44713;53.378;10.022;2023-04-15T11:45:35;22.58;;;16.50;;
58928;SDS011;44713;53.378;10.022;2023-04-15T11:48:06;24.77;;;16.30;;
58928;SDS011;44713;53.378;10.022;2023-04-15T11:50:32;27.40;;;16.75;;
58928;SDS011;44713;53.378;10.022;2023-04-15T11:52:58;22.95;;;16.20;;
58928;SDS011;44713;53.378;10.022;2023-04-15T11:55:25;18.83;;;15.00;;
58928;SDS011;44713;53.378;10.022;2023-04-15T11:58:11;21.10;;;14.35;;
58928;SDS011;44713;53.378;10.022;2023-04-15T12:00:36;17.38;;;13.73;;
58928;SDS011;44713;53.378;10.022;2023-04-15T12:03:10;22.50;;;14.38;;
58928;SDS011;44713;53.378;10.022;2023-04-15T12:08:48;17.50;;;13.68;;
58928;SDS011;44713;53.378;10.022;2023-04-15T12:11:17;18.92;;;15.07;;
58928;SDS011;44713;53.378;10.022;2023-04-15T12:13:47;20.27;;;15.40;;
58928;SDS011;44713;53.378;10.022;2023-04-15T12:16:17;19.02;;;14.52;;
58928;SDS011;44713;53.378;10.022;2023-04-15T12:18:46;23.55;;;15.13;;
58928;SDS011;44713;53.378;10.022;2023-04-15T12:21:17;19.42;;;13.93;;
58928;SDS011;44713;53.378;10.022;2023-04-15T12:23:47;18.13;;;14.80;;
58928;SDS011;44713;53.378;10.022;2023-04-15T12:26:27;18.80;;;14.10;;
58928;SDS011;44713;53.378;10.022;2023-04-15T12:28:54;20.33;;;15.43;;
58928;SDS011;44713;53.378;10.022;2023-04-15T12:31:21;17.38;;;14.38;;
58928;SDS011;44713;53.378;10.022;2023-04-15T12:33:47;18.30;;;13.82;;
58928;SDS011;44713;53.378;10.022;2023-04-15T12:36:13;16.95;;;13.38;;
58928;SDS011;44713;53.378;10.022;2023-04-15T12:38:39;18.52;;;13.43;;
58928;SDS011;44713;53.378;10.022;2023-04-15T12:41:05;18.13;;;13.82;;
58928;SDS011;44713;53.378;10.022;2023-04-15T12:43:30;15.10;;;12.85;;
58928;SDS011;44713;53.378;10.022;2023-04-15T12:45:56;15.98;;;13.50;;
58928;SDS011;44713;53.378;10.022;2023-04-15T12:48:22;15.20;;;12.48;;
58928;SDS011;44713;53.378;10.022;2023-04-15T12:50:47;16.13;;;12.27;;
58928;SDS011;44713;53.378;10.022;2023-04-15T12:53:13;16.17;;;12.25;;
58928;SDS011;44713;53.378;10.022;2023-04-15T12:55:38;17.15;;;13.05;;
58928;SDS011;44713;53.378;10.022;2023-04-15T12:58:03;20.48;;;11.90;;
58928;SDS011;44713;53.378;10.022;2023-04-15T13:00:29;16.30;;;12.25;;
58928;SDS011;44713;53.378;10.022;2023-04-15T13:02:54;15.90;;;12.65;;
58928;SDS011;44713;53.378;10.022;2023-04-15T13:05:19;14.60;;;12.82;;
58928;SDS011;44713;53.378;10.022;2023-04-15T13:07:45;13.13;;;11.70;;
58928;SDS011;44713;53.378;10.022;2023-04-15T13:10:10;16.02;;;12.38;;
58928;SDS011;44713;53.378;10.022;2023-04-15T13:12:35;15.93;;;12.18;;
58928;SDS011;44713;53.378;10.022;2023-04-15T13:15:01;17.40;;;12.68;;
58928;SDS011;44713;53.378;10.022;2023-04-15T13:17:28;15.05;;;11.68;;
58928;SDS011;44713;53.378;10.022;2023-04-15T13:19:53;13.55;;;11.82;;
58928;SDS011;44713;53.378;10.022;2023-04-15T13:22:19;12.95;;;10.90;;
58928;SDS011;44713;53.378;10.022;2023-04-15T13:24:44;15.80;;;11.43;;
58928;SDS011;44713;53.378;10.022;2023-04-15T13:27:10;12.95;;;10.38;;
58928;SDS011;44713;53.378;10.022;2023-04-15T13:29:35;14.35;;;11.38;;
58928;SDS011;44713;53.378;10.022;2023-04-15T13:32:01;16.05;;;11.88;;
58928;SDS011;44713;53.378;10.022;2023-04-15T13:34:26;13.57;;;11.40;;
58928;SDS011;44713;53.378;10.022;2023-04-15T13:36:51;13.73;;;11.20;;
58928;SDS011;44713;53.378;10.022;2023-04-15T13:39:17;15.80;;;11.68;;
58928;SDS011;44713;53.378;10.022;2023-04-15T13:41:42;16.40;;;12.35;;
58928;SDS011;44713;53.378;10.022;2023-04-15T13:44:07;16.40;;;12.65;;
58928;SDS011;44713;53.378;10.022;2023-04-15T13:46:33;16.65;;;13.05;;
58928;SDS011;44713;53.378;10.022;2023-04-15T13:48:59;15.73;;;12.65;;
58928;SDS011;44713;53.378;10.022;2023-04-15T13:51:24;16.55;;;12.65;;
58928;SDS011;44713;53.378;10.022;2023-04-15T13:53:51;17.00;;;12.25;;
58928;SDS011;44713;53.378;10.022;2023-04-15T13:56:16;24.55;;;13.25;;
58928;SDS011;44713;53.378;10.022;2023-04-15T13:58:41;19.23;;;13.50;;
58928;SDS011;44713;53.378;10.022;2023-04-15T14:01:07;22.42;;;13.25;;
58928;SDS011;44713;53.378;10.022;2023-04-15T14:03:33;14.70;;;13.07;;
58928;SDS011;44713;53.378;10.022;2023-04-15T14:06:00;15.55;;;12.55;;
58928;SDS011;44713;53.378;10.022;2023-04-15T14:08:25;17.48;;;13.45;;
58928;SDS011;44713;53.378;10.022;2023-04-15T14:10:50;16.42;;;12.88;;
58928;SDS011;44713;53.378;10.022;2023-04-15T14:13:16;15.20;;;12.68;;
58928;SDS011;44713;53.378;10.022;2023-04-15T14:15:43;16.75;;;13.20;;
58928;SDS011;44713;53.378;10.022;2023-04-15T14:18:08;18.77;;;12.50;;
58928;SDS011;44713;53.378;10.022;2023-04-15T14:20:34;17.77;;;13.00;;
58928;SDS011;44713;53.378;10.022;2023-04-15T14:22:59;14.50;;;11.93;;
58928;SDS011;44713;53.378;10.022;2023-04-15T14:25:25;17.33;;;13.35;;
58928;SDS011;44713;53.378;10.022;2023-04-15T14:27:51;18.52;;;12.77;;
58928;SDS011;44713;53.378;10.022;2023-04-15T14:30:16;13.98;;;12.00;;
58928;SDS011;44713;53.378;10.022;2023-04-15T14:32:41;17.83;;;12.43;;
58928;SDS011;44713;53.378;10.022;2023-04-15T14:35:07;16.55;;;11.93;;
58928;SDS011;44713;53.378;10.022;2023-04-15T14:37:32;15.25;;;12.18;;